createdAt,value
2022-09-04T00:00:09.261Z,235.10
2022-09-04T00:02:59.718Z,209.00
2022-09-04T00:05:32.648Z,228.43
2022-09-04T00:08:15.454Z,192.27
2022-09-04T00:10:52.455Z,209.80
2022-09-04T00:13:24.650Z,220.93
2022-09-04T00:15:59.613Z,197.23
2022-09-04T00:18:36.668Z,124.93
2022-09-04T00:21:14.009Z,79.93
2022-09-04T00:23:49.833Z,101.10
2022-09-04T00:26:40.166Z,82.00
2022-09-04T00:29:21.238Z,29.23
2022-09-04T00:31:55.297Z,22.77
2022-09-04T00:34:47.407Z,217.10
2022-09-04T00:37:21.673Z,77.13
2022-09-04T00:39:55.203Z,118.67
2022-09-04T00:42:45.596Z,24.83
2022-09-04T00:45:34.875Z,19.13
2022-09-04T00:48:13.455Z,20.37
2022-09-04T00:51:04.220Z,21.33
2022-09-04T00:53:47.183Z,22.23
2022-09-04T00:56:42.452Z,21.13
2022-09-04T00:59:20.467Z,21.70
2022-09-04T01:01:56.186Z,22.67
2022-09-04T01:04:37.838Z,31.27
2022-09-04T01:07:25.115Z,270.20
2022-09-04T01:10:15.227Z,282.77
2022-09-04T01:12:51.509Z,161.30
2022-09-04T01:15:27.861Z,195.40
2022-09-04T01:18:05.693Z,95.83
2022-09-04T01:20:54.730Z,18.23
2022-09-04T01:23:46.319Z,19.67
2022-09-04T01:26:24.232Z,18.00
2022-09-04T01:29:07.606Z,14.17
2022-09-04T01:31:45.976Z,13.93
2022-09-04T01:34:34.266Z,20.17
2022-09-04T01:37:16.269Z,17.27
2022-09-04T01:39:50.350Z,41.60
2022-09-04T01:42:28.780Z,13.10
2022-09-04T01:44:57.394Z,11.37
2022-09-04T01:47:31.562Z,12.80
2022-09-04T01:50:04.983Z,11.30
2022-09-04T01:52:42.917Z,13.20
2022-09-04T01:55:31.004Z,12.00
2022-09-04T01:58:13.189Z,11.33
2022-09-04T02:00:50.834Z,12.50
2022-09-04T02:03:31.916Z,12.00
2022-09-04T02:06:09.965Z,11.43
2022-09-04T02:08:56.861Z,12.03
2022-09-04T02:11:29.623Z,12.10
2022-09-04T02:14:11.858Z,11.80
2022-09-04T02:16:47.916Z,12.63
2022-09-04T02:19:25.342Z,10.83
2022-09-04T02:22:03.172Z,11.77
2022-09-04T02:24:39.374Z,11.77
2022-09-04T02:27:14.417Z,10.90
2022-09-04T02:29:54.730Z,11.53
2022-09-04T02:32:32.945Z,11.10
2022-09-04T02:35:08.539Z,11.03
2022-09-04T02:37:47.821Z,11.13
2022-09-04T02:40:20.489Z,11.27
2022-09-04T02:43:01.239Z,12.43
2022-09-04T02:45:38.559Z,11.50
2022-09-04T02:48:14.443Z,11.23
2022-09-04T02:50:58.094Z,12.17
2022-09-04T02:53:34.099Z,12.03
2022-09-04T02:56:24.589Z,11.13
2022-09-04T02:59:08.560Z,12.00
2022-09-04T03:01:49.196Z,12.00
2022-09-04T03:04:26.436Z,12.13
2022-09-04T03:07:00.986Z,12.10
2022-09-04T03:09:34.438Z,11.57
2022-09-04T03:12:07.793Z,13.03
2022-09-04T03:14:44.266Z,13.13
2022-09-04T03:17:23.215Z,11.97
2022-09-04T03:20:00.052Z,11.13
2022-09-04T03:22:34.815Z,11.33
2022-09-04T03:25:11.198Z,11.97
2022-09-04T03:27:40.250Z,11.60
2022-09-04T03:30:11.360Z,11.33
2022-09-04T03:32:53.296Z,13.60
2022-09-04T03:35:31.413Z,13.27
2022-09-04T03:38:19.416Z,12.63
2022-09-04T03:41:05.674Z,13.70
2022-09-04T03:43:47.775Z,13.37
2022-09-04T03:46:28.246Z,12.77
2022-09-04T03:49:12.409Z,13.73
2022-09-04T03:51:53.442Z,11.47
2022-09-04T03:54:36.166Z,12.80
2022-09-04T03:57:19.982Z,11.97
2022-09-04T04:00:07.836Z,12.67
2022-09-04T04:02:52.039Z,11.27
2022-09-04T04:05:29.602Z,11.87
2022-09-04T04:08:28.046Z,12.63
2022-09-04T04:11:08.051Z,11.90
2022-09-04T04:14:04.763Z,12.50
2022-09-04T04:16:55.854Z,13.80
2022-09-04T04:19:37.046Z,13.47
2022-09-04T04:22:30.871Z,13.77
2022-09-04T04:25:25.608Z,12.43
2022-09-04T04:28:09.447Z,13.57
2022-09-04T04:30:47.341Z,13.07
2022-09-04T04:33:42.688Z,13.10
2022-09-04T04:36:20.957Z,12.90
2022-09-04T04:39:04.526Z,12.83
2022-09-04T04:42:05.948Z,13.23
2022-09-04T04:45:07.635Z,11.90
2022-09-04T04:47:54.060Z,12.03
2022-09-04T04:50:29.522Z,13.03
2022-09-04T04:53:07.214Z,12.67
2022-09-04T04:55:50.598Z,12.60
2022-09-04T04:58:45.407Z,12.67
2022-09-04T05:01:29.955Z,11.87
2022-09-04T05:04:09.442Z,15.23
2022-09-04T05:06:43.088Z,15.70
2022-09-04T05:09:17.642Z,16.30
2022-09-04T05:11:58.388Z,19.70
2022-09-04T05:14:44.468Z,21.17
2022-09-04T05:17:23.898Z,22.37
2022-09-04T05:20:00.635Z,23.87
2022-09-04T05:22:37.876Z,24.50
2022-09-04T05:25:15.045Z,25.20
2022-09-04T05:28:04.562Z,24.40
2022-09-04T05:30:44.100Z,22.40
2022-09-04T05:33:21.401Z,22.33
2022-09-04T05:35:56.456Z,20.80
2022-09-04T05:38:35.213Z,18.87
2022-09-04T05:41:08.993Z,16.37
2022-09-04T05:43:55.362Z,16.37
2022-09-04T05:46:42.275Z,14.97
2022-09-04T05:49:23.023Z,14.50
2022-09-04T05:52:21.875Z,15.90
2022-09-04T05:55:32.118Z,14.10
2022-09-04T05:58:26.110Z,14.37
2022-09-04T06:01:08.659Z,14.10
2022-09-04T06:04:14.835Z,14.77
2022-09-04T06:06:55.432Z,15.53
2022-09-04T06:09:40.933Z,15.73
2022-09-04T06:12:29.149Z,17.80
2022-09-04T06:15:15.796Z,18.10
2022-09-04T06:18:09.225Z,16.50
2022-09-04T06:20:50.243Z,15.87
2022-09-04T06:23:38.269Z,126.68
2022-09-04T06:26:29.214Z,39.43
2022-09-04T06:29:16.809Z,17.37
2022-09-04T06:32:06.852Z,14.47
2022-09-04T06:34:53.129Z,15.17
2022-09-04T06:37:33.595Z,14.57
2022-09-04T06:40:20.553Z,15.57
2022-09-04T06:43:01.324Z,14.97
2022-09-04T06:45:42.321Z,14.83
2022-09-04T06:48:19.959Z,15.10
2022-09-04T06:51:01.652Z,129.10
2022-09-04T06:53:42.837Z,32.08
2022-09-04T06:56:25.063Z,20.33
2022-09-04T06:59:15.021Z,18.75
2022-09-04T07:02:00.671Z,14.47
2022-09-04T07:04:45.993Z,13.45
2022-09-04T07:07:25.157Z,14.63
2022-09-04T07:10:01.482Z,12.73
2022-09-04T07:12:51.804Z,12.48
2022-09-04T07:15:47.541Z,13.52
2022-09-04T07:18:39.402Z,91.97
2022-09-04T07:21:15.595Z,27.55
2022-09-04T07:23:58.999Z,23.95
2022-09-04T07:26:38.146Z,23.45
2022-09-04T07:29:29.795Z,26.05
2022-09-04T07:32:06.308Z,38.40
2022-09-04T07:34:44.142Z,360.10
2022-09-04T07:37:25.235Z,175.15
2022-09-04T07:40:08.116Z,101.13
2022-09-04T07:42:43.606Z,81.03
2022-09-04T07:45:23.389Z,119.97
2022-09-04T07:48:07.331Z,48.78
2022-09-04T07:50:40.348Z,100.25
2022-09-04T07:53:29.498Z,136.15
2022-09-04T07:56:05.122Z,242.98
2022-09-04T07:58:55.383Z,79.22
2022-09-04T08:01:46.645Z,68.22
2022-09-04T08:04:38.320Z,278.75
2022-09-04T08:07:13.545Z,267.27
2022-09-04T08:10:07.897Z,266.75
2022-09-04T08:13:22.789Z,301.65
2022-09-04T08:16:06.557Z,116.43
2022-09-04T08:19:03.481Z,226.23
2022-09-04T08:21:35.678Z,341.13
2022-09-04T08:24:42.703Z,355.33
2022-09-04T08:27:20.483Z,411.70
2022-09-04T08:30:10.314Z,482.92
2022-09-04T08:33:01.216Z,462.92
2022-09-04T08:35:34.673Z,377.85
2022-09-04T08:38:20.546Z,409.25
2022-09-04T08:41:33.476Z,332.20
2022-09-04T08:44:38.361Z,290.65
2022-09-04T08:47:37.663Z,11.70
2022-09-04T08:50:31.983Z,10.02
2022-09-04T08:53:47.166Z,10.85
2022-09-04T08:56:27.474Z,11.68
2022-09-04T08:59:31.697Z,10.45
2022-09-04T09:02:32.877Z,11.57
2022-09-04T09:05:27.157Z,10.90
2022-09-04T09:08:31.890Z,12.50
2022-09-04T09:11:28.847Z,11.38
2022-09-04T09:14:34.521Z,10.98
2022-09-04T09:17:13.763Z,10.93
2022-09-04T09:19:53.708Z,10.63
2022-09-04T09:22:40.006Z,11.30
2022-09-04T09:25:21.222Z,11.63
2022-09-04T09:28:37.321Z,10.48
2022-09-04T09:31:40.216Z,13.52
2022-09-04T09:34:49.526Z,15.07
2022-09-04T09:37:45.103Z,13.23
2022-09-04T09:40:39.734Z,15.55
2022-09-04T09:43:42.280Z,19.35
2022-09-04T09:46:50.219Z,17.20
2022-09-04T09:49:48.807Z,16.45
2022-09-04T09:52:45.434Z,16.05
2022-09-04T09:55:56.103Z,18.48
2022-09-04T09:59:09.921Z,20.20
2022-09-04T10:02:01.324Z,18.65
2022-09-04T10:05:10.852Z,12.55
2022-09-04T10:08:12.724Z,10.27
2022-09-04T10:11:03.703Z,12.77
2022-09-04T10:14:07.195Z,12.60
2022-09-04T10:17:17.283Z,14.77
2022-09-04T10:20:23.756Z,14.32
2022-09-04T10:23:21.108Z,13.98
2022-09-04T10:26:13.452Z,15.75
2022-09-04T10:29:12.670Z,13.57
2022-09-04T10:31:57.815Z,17.65
2022-09-04T10:34:47.872Z,18.70
2022-09-04T10:37:32.234Z,21.00
2022-09-04T10:40:32.369Z,149.02
2022-09-04T10:43:24.860Z,22.80
2022-09-04T10:46:20.695Z,21.60
2022-09-04T10:49:21.479Z,24.88
2022-09-04T10:52:18.353Z,21.30
2022-09-04T10:55:08.262Z,12.15
2022-09-04T10:58:05.996Z,18.58
2022-09-04T11:00:50.297Z,18.27
2022-09-04T11:03:45.118Z,14.88
2022-09-04T11:06:40.596Z,13.10
2022-09-04T11:09:44.227Z,14.00
2022-09-04T11:12:41.698Z,18.15
2022-09-04T11:15:35.120Z,130.30
2022-09-04T11:18:34.950Z,16.27
2022-09-04T11:21:35.345Z,17.67
2022-09-04T11:25:00.165Z,91.30
2022-09-04T11:28:01.852Z,20.42
2022-09-04T11:30:39.540Z,18.95
2022-09-04T11:33:55.324Z,13.68
2022-09-04T11:36:51.207Z,13.68
2022-09-04T11:39:52.475Z,13.43
2022-09-04T11:42:35.567Z,12.90
2022-09-04T11:45:32.665Z,13.20
2022-09-04T11:48:24.687Z,13.98
2022-09-04T11:51:40.846Z,14.75
2022-09-04T11:54:30.940Z,12.15
2022-09-04T11:57:15.072Z,14.75
2022-09-04T12:00:09.294Z,13.18
2022-09-04T12:03:08.161Z,12.35
2022-09-04T12:06:01.002Z,11.88
2022-09-04T12:09:00.359Z,11.73
2022-09-04T12:12:21.353Z,13.45
2022-09-04T12:15:18.303Z,10.40
2022-09-04T12:18:22.546Z,15.25
2022-09-04T12:21:26.919Z,17.25
2022-09-04T12:24:20.536Z,23.45
2022-09-04T12:27:21.813Z,14.38
2022-09-04T12:30:07.889Z,16.80
2022-09-04T12:33:26.871Z,11.70
2022-09-04T12:36:26.667Z,16.77
2022-09-04T12:39:16.398Z,11.63
2022-09-04T12:41:55.448Z,9.75
2022-09-04T12:44:35.988Z,129.13
2022-09-04T12:47:23.558Z,12.40
2022-09-04T12:50:28.451Z,163.93
2022-09-04T12:53:21.129Z,15.10
2022-09-04T12:56:03.305Z,11.93
2022-09-04T12:58:52.471Z,13.20
2022-09-04T13:01:32.539Z,17.10
2022-09-04T13:04:13.252Z,16.58
2022-09-04T13:06:53.529Z,18.75
2022-09-04T13:09:32.620Z,27.77
2022-09-04T13:12:14.228Z,30.50
2022-09-04T13:15:03.093Z,31.48
2022-09-04T13:17:43.819Z,40.08
2022-09-04T13:20:22.810Z,41.05
2022-09-04T13:23:11.079Z,41.78
2022-09-04T13:25:53.480Z,51.38
2022-09-04T13:28:30.551Z,55.67
2022-09-04T13:31:09.824Z,50.55
2022-09-04T13:33:51.332Z,45.65
2022-09-04T13:36:35.392Z,41.28
2022-09-04T13:39:36.310Z,45.08
2022-09-04T13:42:31.498Z,28.92
2022-09-04T13:45:06.372Z,37.90
2022-09-04T13:47:45.207Z,29.20
2022-09-04T13:50:25.524Z,25.25
2022-09-04T13:53:00.134Z,29.08
2022-09-04T13:55:32.663Z,40.17
2022-09-04T13:58:11.183Z,35.17
2022-09-04T14:00:46.150Z,41.13
2022-09-04T14:03:32.365Z,38.38
2022-09-04T14:06:04.450Z,38.85
2022-09-04T14:08:39.620Z,40.13
2022-09-04T14:11:26.295Z,42.72
2022-09-04T14:14:15.970Z,34.17
2022-09-04T14:16:44.692Z,42.80
2022-09-04T14:19:36.025Z,49.90
2022-09-04T14:22:19.713Z,191.75
2022-09-04T14:24:58.316Z,231.98
2022-09-04T14:27:38.197Z,45.13
2022-09-04T14:30:09.054Z,43.22
2022-09-04T14:32:57.942Z,42.72
2022-09-04T14:35:35.409Z,178.07
2022-09-04T14:38:41.388Z,41.55
2022-09-04T14:41:35.939Z,45.28
2022-09-04T14:44:27.296Z,45.55
2022-09-04T14:47:07.604Z,47.00
2022-09-04T14:49:47.035Z,45.70
2022-09-04T14:52:20.062Z,52.08
2022-09-04T14:54:54.079Z,51.10
2022-09-04T14:57:30.225Z,48.15
2022-09-04T15:00:06.730Z,48.08
2022-09-04T15:02:42.481Z,39.08
2022-09-04T15:05:21.357Z,43.38
2022-09-04T15:08:00.044Z,41.55
2022-09-04T15:10:50.744Z,148.50
2022-09-04T15:13:48.939Z,37.10
2022-09-04T15:16:24.701Z,45.40
2022-09-04T15:18:59.165Z,46.78
2022-09-04T15:21:36.191Z,41.85
2022-09-04T15:24:26.193Z,109.40
2022-09-04T15:27:00.603Z,34.47
2022-09-04T15:29:38.823Z,38.42
2022-09-04T15:32:13.899Z,36.95
2022-09-04T15:34:43.282Z,29.58
2022-09-04T15:37:22.418Z,151.13
2022-09-04T15:40:02.608Z,29.38
2022-09-04T15:42:47.790Z,27.15
2022-09-04T15:45:24.243Z,25.75
2022-09-04T15:48:17.916Z,26.33
2022-09-04T15:51:01.285Z,29.00
2022-09-04T15:53:33.841Z,27.75
2022-09-04T15:56:10.861Z,21.95
2022-09-04T15:58:53.375Z,24.55
2022-09-04T16:01:28.623Z,21.55
2022-09-04T16:04:07.461Z,15.68
2022-09-04T16:06:47.015Z,19.05
2022-09-04T16:09:25.933Z,117.60
2022-09-04T16:12:04.523Z,28.90
2022-09-04T16:14:44.619Z,13.35
2022-09-04T16:17:21.548Z,11.20
2022-09-04T16:19:57.971Z,12.18
2022-09-04T16:22:36.581Z,13.52
2022-09-04T16:25:11.311Z,11.40
2022-09-04T16:27:48.899Z,12.98
2022-09-04T16:30:33.198Z,12.50
2022-09-04T16:33:04.496Z,11.85
2022-09-04T16:35:37.525Z,10.85
2022-09-04T16:38:15.397Z,7.10
2022-09-04T16:40:50.154Z,8.82
2022-09-04T16:43:27.175Z,7.72
2022-09-04T16:46:14.251Z,7.13
2022-09-04T16:48:52.005Z,7.28
2022-09-04T16:51:40.114Z,79.93
2022-09-04T16:54:18.551Z,15.43
2022-09-04T16:56:53.685Z,10.38
2022-09-04T16:59:46.102Z,8.93
2022-09-04T17:02:29.393Z,9.35
2022-09-04T17:05:23.061Z,8.80
2022-09-04T17:08:04.608Z,8.57
2022-09-04T17:10:41.639Z,7.47
2022-09-04T17:13:18.290Z,7.72
2022-09-04T17:15:58.132Z,8.57
2022-09-04T17:18:29.367Z,7.38
2022-09-04T17:25:19.589Z,10.50
2022-09-04T17:29:01.229Z,9.82
2022-09-04T17:29:10.271Z,7.95
2022-09-04T17:29:49.379Z,6.88
2022-09-04T17:33:17.805Z,8.70
2022-09-04T17:40:36.992Z,9.50
2022-09-04T17:40:48.845Z,7.93
2022-09-04T17:41:31.239Z,6.63
2022-09-04T17:44:20.228Z,10.27
2022-09-04T17:46:55.994Z,9.15
2022-09-04T17:49:34.730Z,10.07
2022-09-04T17:52:09.831Z,8.35
2022-09-04T17:54:49.114Z,8.77
2022-09-04T17:57:26.797Z,9.20
2022-09-04T18:00:05.074Z,8.75
2022-09-04T18:02:42.683Z,8.50
2022-09-04T18:05:20.172Z,7.00
2022-09-04T18:08:09.712Z,9.02
2022-09-04T18:10:52.081Z,8.35
2022-09-04T18:13:37.791Z,7.22
2022-09-04T18:16:15.686Z,9.45
2022-09-04T18:18:48.262Z,8.65
2022-09-04T18:21:23.103Z,7.72
2022-09-04T18:24:03.122Z,8.63
2022-09-04T18:26:42.461Z,7.63
2022-09-04T18:32:25.268Z,7.88
2022-09-04T18:37:07.005Z,7.97
2022-09-04T18:37:16.826Z,9.13
2022-09-04T18:38:39.048Z,8.30
2022-09-04T18:47:13.400Z,8.50
2022-09-04T18:50:30.330Z,6.95
2022-09-04T18:50:38.906Z,70.80
2022-09-04T18:50:51.326Z,10.07
2022-09-04T18:53:15.305Z,7.88
2022-09-04T18:55:48.202Z,29.33
2022-09-04T18:58:42.848Z,7.40
2022-09-04T19:01:20.366Z,7.38
2022-09-04T19:03:59.934Z,6.47
2022-09-04T19:06:35.018Z,6.72
2022-09-04T19:09:12.741Z,7.15
2022-09-04T19:11:48.067Z,7.65
2022-09-04T19:14:20.584Z,7.72
2022-09-04T19:16:54.295Z,8.55
2022-09-04T19:19:30.235Z,7.07
2022-09-04T19:22:07.547Z,7.82
2022-09-04T19:24:43.256Z,7.43
2022-09-04T19:27:27.703Z,6.93
2022-09-04T19:30:18.249Z,67.60
2022-09-04T19:33:06.536Z,6.97
2022-09-04T19:35:39.364Z,6.88
2022-09-04T19:42:33.961Z,7.75
2022-09-04T19:46:03.816Z,8.48
2022-09-04T19:46:17.920Z,7.55
2022-09-04T19:47:04.668Z,7.38
2022-09-04T19:53:20.165Z,8.73
2022-09-04T19:53:30.876Z,8.55
2022-09-04T19:55:41.610Z,8.75
2022-09-04T19:58:12.072Z,6.85
2022-09-04T20:00:48.571Z,8.15
2022-09-04T20:03:29.407Z,7.30
2022-09-04T20:06:21.153Z,6.45
2022-09-04T20:08:56.428Z,8.38
2022-09-04T20:11:35.300Z,6.65
2022-09-04T20:14:15.334Z,8.60
2022-09-04T20:16:53.299Z,7.25
2022-09-04T20:19:28.657Z,7.03
2022-09-04T20:22:03.147Z,7.15
2022-09-04T20:24:41.007Z,7.80
2022-09-04T20:27:16.089Z,7.22
2022-09-04T20:29:54.794Z,6.50
2022-09-04T20:32:29.214Z,8.35
2022-09-04T20:35:13.518Z,6.38
2022-09-04T20:37:51.593Z,7.13
2022-09-04T20:40:31.769Z,5.63
2022-09-04T20:43:13.342Z,7.18
2022-09-04T20:49:52.401Z,6.13
2022-09-04T20:52:57.007Z,7.80
2022-09-04T20:52:59.315Z,6.22
2022-09-04T20:55:01.612Z,6.97
2022-09-04T21:03:09.940Z,7.10
2022-09-04T21:03:12.997Z,8.57
2022-09-04T21:03:35.749Z,6.50
2022-09-04T21:06:25.441Z,5.82
2022-09-04T21:09:06.060Z,24.73
2022-09-04T21:11:42.049Z,5.57
2022-09-04T21:14:18.124Z,8.48
2022-09-04T21:17:35.204Z,7.22
2022-09-04T21:20:31.319Z,6.40
2022-09-04T21:23:34.733Z,5.97
2022-09-04T21:26:14.890Z,5.78
2022-09-04T21:29:11.311Z,5.95
2022-09-04T21:32:21.129Z,5.38
2022-09-04T21:35:00.054Z,6.45
2022-09-04T21:37:39.930Z,6.22
2022-09-04T21:40:50.471Z,4.75
2022-09-04T21:43:55.827Z,5.60
2022-09-04T21:46:53.504Z,4.57
2022-09-04T21:50:16.860Z,5.13
2022-09-04T21:53:12.720Z,5.85
2022-09-04T21:57:11.745Z,4.93
2022-09-04T22:02:37.305Z,3.75
2022-09-04T22:02:39.686Z,4.32
2022-09-04T22:05:16.289Z,4.82
2022-09-04T22:10:14.053Z,5.00
2022-09-04T22:13:42.497Z,5.88
2022-09-04T22:13:51.475Z,5.57
2022-09-04T22:16:37.444Z,5.35
2022-09-04T22:19:20.814Z,5.47
2022-09-04T22:22:04.138Z,6.60
2022-09-04T22:25:02.134Z,6.65
2022-09-04T22:28:10.151Z,5.95
2022-09-04T22:30:56.935Z,6.05
2022-09-04T22:34:16.834Z,6.07
2022-09-04T22:37:07.898Z,5.20
2022-09-04T22:40:17.406Z,6.18
2022-09-04T22:42:51.830Z,5.80
2022-09-04T22:45:48.978Z,4.15
2022-09-04T22:48:47.868Z,5.20
2022-09-04T22:51:46.693Z,4.60
2022-09-04T22:54:40.288Z,3.87
2022-09-04T22:57:12.831Z,4.93
2022-09-04T23:00:09.656Z,4.03
2022-09-04T23:03:09.208Z,4.23
2022-09-04T23:08:22.929Z,4.00
2022-09-04T23:13:45.050Z,5.40
2022-09-04T23:13:56.781Z,5.17
2022-09-04T23:15:52.647Z,4.77
2022-09-04T23:24:37.813Z,4.80
2022-09-04T23:26:42.219Z,6.40
2022-09-04T23:26:42.225Z,8.13
2022-09-04T23:28:15.497Z,8.07
2022-09-04T23:31:19.770Z,7.47
2022-09-04T23:34:10.255Z,9.07
2022-09-04T23:37:03.206Z,8.27
2022-09-04T23:40:04.981Z,8.23
2022-09-04T23:43:07.584Z,8.83
2022-09-04T23:46:01.887Z,9.03
2022-09-04T23:49:06.621Z,9.10
2022-09-04T23:51:50.441Z,10.50
2022-09-04T23:54:49.298Z,9.87
2022-09-04T23:57:26.587Z,14.43
